createdAt,value
2023-05-19T07:25:59.181Z,14.40
2023-05-19T07:28:26.176Z,14.65
2023-05-19T07:30:53.432Z,21.15
2023-05-19T07:33:20.368Z,17.60
2023-05-19T07:35:47.629Z,20.83
2023-05-19T07:38:14.526Z,25.38
2023-05-19T07:40:41.511Z,15.38
2023-05-19T07:43:08.468Z,19.33
2023-05-19T07:45:35.416Z,21.80
2023-05-19T07:48:02.458Z,20.70
2023-05-19T07:50:29.636Z,21.45
2023-05-19T07:52:56.692Z,22.52
2023-05-19T07:55:23.646Z,20.65
2023-05-19T07:57:51.258Z,26.92
2023-05-19T08:00:18.547Z,26.98
2023-05-19T08:02:45.895Z,39.50
2023-05-19T08:05:12.909Z,33.78
2023-05-19T08:07:40.164Z,37.92
2023-05-19T08:10:07.624Z,42.13
2023-05-19T08:12:34.555Z,31.58
2023-05-19T08:15:02.024Z,21.60
2023-05-19T08:17:29.165Z,30.70
2023-05-19T08:19:56.219Z,28.90
2023-05-19T08:22:23.216Z,30.05
2023-05-19T08:24:51.921Z,38.42
2023-05-19T08:27:18.990Z,27.90
2023-05-19T08:29:46.037Z,26.85
2023-05-19T08:32:13.482Z,32.45
2023-05-19T08:34:41.494Z,32.03
2023-05-19T08:37:08.535Z,28.10
2023-05-19T08:39:35.671Z,29.30
2023-05-19T08:42:02.716Z,29.48
2023-05-19T08:44:31.036Z,31.10
2023-05-19T08:47:03.066Z,36.83
2023-05-19T08:49:33.591Z,29.52
2023-05-19T08:52:17.313Z,28.73
2023-05-19T08:54:51.026Z,31.13
2023-05-19T08:57:18.978Z,33.35
2023-05-19T08:59:46.360Z,34.60
2023-05-19T09:02:14.533Z,41.22
2023-05-19T09:04:46.122Z,38.65
2023-05-19T09:07:16.959Z,27.45
2023-05-19T09:09:44.214Z,37.40
2023-05-19T09:12:11.635Z,29.08
2023-05-19T09:14:39.120Z,38.42
2023-05-19T09:17:06.816Z,24.73
2023-05-19T09:19:34.048Z,32.97
2023-05-19T09:22:03.880Z,30.23
2023-05-19T09:24:31.168Z,29.02
2023-05-19T09:27:00.080Z,28.95
2023-05-19T09:29:27.455Z,32.78
2023-05-19T09:32:05.454Z,27.92
2023-05-19T09:34:32.620Z,30.00
2023-05-19T09:37:00.051Z,32.15
2023-05-19T09:39:28.979Z,26.35
2023-05-19T09:41:58.752Z,27.35
2023-05-19T09:44:30.561Z,25.25
2023-05-19T09:46:58.866Z,26.10
2023-05-19T09:49:30.750Z,22.65
2023-05-19T09:51:59.117Z,25.45
2023-05-19T09:54:29.845Z,32.03
2023-05-19T09:57:07.760Z,31.77
2023-05-19T09:59:35.888Z,30.27
2023-05-19T10:02:03.175Z,24.70
2023-05-19T10:04:31.312Z,25.98
2023-05-19T10:07:01.799Z,24.35
2023-05-19T10:09:30.113Z,26.77
2023-05-19T10:11:59.133Z,25.23
2023-05-19T10:14:27.801Z,21.25
2023-05-19T10:16:56.631Z,28.85
2023-05-19T10:19:26.694Z,26.33
2023-05-19T10:21:54.423Z,22.73
2023-05-19T10:24:21.825Z,27.30
2023-05-19T10:26:54.248Z,26.15
2023-05-19T10:29:27.653Z,24.90
2023-05-19T10:32:01.388Z,27.67
2023-05-19T10:35:02.401Z,25.13
2023-05-19T10:37:46.959Z,20.42
2023-05-19T10:40:22.104Z,27.05
2023-05-19T10:43:17.454Z,21.90
2023-05-19T10:45:58.121Z,30.88
2023-05-19T10:48:25.167Z,31.40
2023-05-19T10:50:56.619Z,24.88
2023-05-19T10:53:31.551Z,30.23
2023-05-19T10:56:02.756Z,29.65
2023-05-19T11:01:19.799Z,25.35
2023-05-19T11:03:54.910Z,28.10
2023-05-19T11:06:28.258Z,24.38
2023-05-19T11:09:15.686Z,30.98
2023-05-19T11:11:54.114Z,30.58
2023-05-19T11:14:25.493Z,22.75
2023-05-19T11:16:56.904Z,26.88
2023-05-19T11:19:35.732Z,26.10
2023-05-19T11:22:13.539Z,22.20
2023-05-19T11:24:52.495Z,24.33
2023-05-19T11:27:37.624Z,27.52
2023-05-19T11:30:16.095Z,30.10
2023-05-19T11:32:44.481Z,24.75
2023-05-19T11:35:11.620Z,23.63
2023-05-19T11:37:40.754Z,26.35
2023-05-19T11:40:08.485Z,24.20
2023-05-19T11:42:37.230Z,27.02
2023-05-19T11:45:05.381Z,24.45
2023-05-19T11:47:45.909Z,28.90
2023-05-19T11:50:20.587Z,18.80
2023-05-19T11:52:47.813Z,29.73
2023-05-19T11:55:18.718Z,23.42
2023-05-19T11:58:04.656Z,27.23
2023-05-19T12:00:39.839Z,20.48
2023-05-19T12:03:08.360Z,28.77
2023-05-19T12:05:43.431Z,22.30
2023-05-19T12:08:12.209Z,22.67
2023-05-19T12:10:40.221Z,25.08
2023-05-19T12:13:10.713Z,16.35
2023-05-19T12:15:39.023Z,17.83
2023-05-19T12:18:06.826Z,18.45
2023-05-19T12:20:36.328Z,15.40
2023-05-19T12:23:04.185Z,20.98
2023-05-19T12:25:32.366Z,13.20
2023-05-19T12:28:03.228Z,21.65
2023-05-19T12:30:31.821Z,13.77
2023-05-19T12:32:59.281Z,13.85
2023-05-19T12:35:28.016Z,15.10
2023-05-19T12:37:55.334Z,18.92
2023-05-19T12:40:22.750Z,24.25
2023-05-19T12:42:52.108Z,11.73
2023-05-19T12:45:22.933Z,15.85
2023-05-19T12:47:51.948Z,16.13
2023-05-19T12:50:19.502Z,19.42
2023-05-19T12:52:53.573Z,16.45
2023-05-19T12:55:21.158Z,14.27
2023-05-19T12:57:58.131Z,19.80
2023-05-19T13:00:29.123Z,15.18
2023-05-19T13:05:33.854Z,15.57
2023-05-19T13:08:11.019Z,15.90
2023-05-19T13:10:39.952Z,15.98
2023-05-19T13:13:08.577Z,17.45
2023-05-19T13:15:39.051Z,13.35
2023-05-19T13:18:09.064Z,18.35
2023-05-19T13:20:37.560Z,18.73
2023-05-19T13:23:06.092Z,16.73
2023-05-19T13:25:34.515Z,12.52
2023-05-19T13:28:05.156Z,14.05
2023-05-19T13:30:33.446Z,18.83
2023-05-19T13:33:00.600Z,16.70
2023-05-19T13:35:27.611Z,21.30
2023-05-19T13:37:54.846Z,20.05
2023-05-19T13:40:23.195Z,17.58
2023-05-19T13:42:50.152Z,15.05
2023-05-19T13:45:17.190Z,16.90
2023-05-19T13:47:44.163Z,16.98
2023-05-19T13:50:11.285Z,18.40
2023-05-19T13:52:38.334Z,18.52
2023-05-19T13:55:06.819Z,18.88
2023-05-19T13:57:34.267Z,16.05
2023-05-19T14:00:03.716Z,22.85
2023-05-19T14:02:31.507Z,19.38
2023-05-19T14:04:58.586Z,15.45
2023-05-19T14:07:25.895Z,21.60
2023-05-19T14:09:53.151Z,16.80
2023-05-19T14:12:23.184Z,14.52
2023-05-19T14:14:52.455Z,19.77
2023-05-19T14:17:19.342Z,15.68
2023-05-19T14:19:46.244Z,17.75
2023-05-19T14:22:13.725Z,24.48
2023-05-19T14:24:41.715Z,19.98
2023-05-19T14:27:08.668Z,12.30
2023-05-19T14:29:35.660Z,16.65
2023-05-19T14:32:03.992Z,20.08
2023-05-19T14:34:31.041Z,22.77
2023-05-19T14:36:58.003Z,14.85
2023-05-19T14:39:24.928Z,21.48
2023-05-19T14:41:53.141Z,23.73
2023-05-19T14:44:20.147Z,23.10
2023-05-19T14:46:47.153Z,18.27
2023-05-19T14:49:14.252Z,22.13
2023-05-19T14:51:41.135Z,18.10
2023-05-19T14:54:08.192Z,21.63
2023-05-19T14:56:35.290Z,18.83
2023-05-19T14:59:02.281Z,22.00
2023-05-19T15:01:29.290Z,23.75
2023-05-19T15:03:56.445Z,21.98
2023-05-19T15:06:23.783Z,18.30
2023-05-19T15:08:51.131Z,27.88
2023-05-19T15:11:18.033Z,17.45
2023-05-19T15:13:45.209Z,17.73
2023-05-19T15:18:42.045Z,21.00
2023-05-19T15:21:08.980Z,28.38
2023-05-19T15:23:35.996Z,27.67
2023-05-19T15:26:03.275Z,31.95
2023-05-19T15:28:30.328Z,19.50
2023-05-19T15:30:57.242Z,28.25
2023-05-19T15:33:24.265Z,18.40
2023-05-19T15:35:52.599Z,25.30
2023-05-19T15:38:20.016Z,31.73
2023-05-19T15:40:47.056Z,21.77
2023-05-19T15:43:14.298Z,24.27
2023-05-19T15:45:41.417Z,26.90
2023-05-19T15:48:08.822Z,20.52
2023-05-19T15:50:36.461Z,18.58
2023-05-19T15:53:03.671Z,14.23
2023-05-19T15:55:30.724Z,32.13
2023-05-19T15:57:57.867Z,16.63
2023-05-19T16:00:24.812Z,18.38
2023-05-19T16:02:51.752Z,16.67
2023-05-19T16:05:18.902Z,15.68
2023-05-19T16:07:45.766Z,19.40
2023-05-19T16:10:12.715Z,17.40
2023-05-19T16:12:39.766Z,13.23
2023-05-19T16:15:07.201Z,19.65
2023-05-19T16:17:34.876Z,15.25
2023-05-19T16:20:01.910Z,16.50
2023-05-19T16:22:30.349Z,19.85
2023-05-19T16:24:57.277Z,15.18
2023-05-19T16:27:24.330Z,22.00
2023-05-19T16:29:51.222Z,21.10
2023-05-19T16:32:18.169Z,14.95
2023-05-19T16:34:45.012Z,17.85
2023-05-19T16:37:11.855Z,22.77
2023-05-19T16:39:38.794Z,19.95
2023-05-19T16:42:05.956Z,18.02
2023-05-19T16:44:32.956Z,17.15
2023-05-19T16:47:00.093Z,19.85
2023-05-19T16:49:27.145Z,18.08
2023-05-19T16:51:54.340Z,21.27
2023-05-19T16:54:21.841Z,21.17
2023-05-19T16:56:50.228Z,16.27
2023-05-19T16:59:17.586Z,23.30
2023-05-19T17:01:44.835Z,21.52
2023-05-19T17:04:12.028Z,21.27
2023-05-19T17:06:39.026Z,20.95
2023-05-19T17:09:05.961Z,17.65
2023-05-19T17:11:32.862Z,19.42
2023-05-19T17:13:59.905Z,19.48
2023-05-19T17:16:26.886Z,22.70
2023-05-19T17:18:53.926Z,13.18
2023-05-19T17:21:20.902Z,19.48
2023-05-19T17:23:48.302Z,19.67
2023-05-19T17:26:16.382Z,27.08
2023-05-19T17:28:43.270Z,19.23
2023-05-19T17:31:12.116Z,20.90
2023-05-19T17:33:39.428Z,20.00
2023-05-19T17:36:07.389Z,25.08
2023-05-19T17:38:34.493Z,17.50
2023-05-19T17:41:09.783Z,18.70
2023-05-19T17:43:37.584Z,23.65
2023-05-19T17:46:05.292Z,22.95
2023-05-19T17:48:32.704Z,23.98
2023-05-19T17:51:00.665Z,21.00
2023-05-19T17:53:27.967Z,22.70
2023-05-19T17:56:06.699Z,19.52
2023-05-19T17:58:33.993Z,20.15
2023-05-19T18:01:01.106Z,20.60
2023-05-19T18:03:28.795Z,21.58
2023-05-19T18:05:56.071Z,23.35
2023-05-19T18:08:23.259Z,20.42
2023-05-19T18:10:51.856Z,30.38
2023-05-19T18:13:18.856Z,23.65
2023-05-19T18:15:45.734Z,19.90
2023-05-19T18:18:12.760Z,23.38
2023-05-19T18:20:41.418Z,21.65
2023-05-19T18:23:08.353Z,19.67
2023-05-19T18:25:35.814Z,21.52
2023-05-19T18:28:02.735Z,23.08
2023-05-19T18:30:29.756Z,28.42
2023-05-19T18:32:57.412Z,27.80
2023-05-19T18:35:24.270Z,29.20
2023-05-19T18:37:54.550Z,17.08
2023-05-19T18:40:21.477Z,24.75
2023-05-19T18:42:48.453Z,17.15
2023-05-19T18:45:15.427Z,23.20
2023-05-19T18:47:42.497Z,26.05
2023-05-19T18:50:09.468Z,23.42
2023-05-19T18:52:36.441Z,20.95
2023-05-19T18:55:03.968Z,25.80
2023-05-19T18:57:30.952Z,24.45
2023-05-19T18:59:58.264Z,19.17
2023-05-19T19:02:25.251Z,22.63
2023-05-19T19:04:52.176Z,32.03
2023-05-19T19:07:19.197Z,19.58
2023-05-19T19:09:46.262Z,24.50
2023-05-19T19:12:13.104Z,26.52
2023-05-19T19:14:39.981Z,20.25
2023-05-19T19:17:06.884Z,26.80
2023-05-19T19:19:33.862Z,25.85
2023-05-19T19:22:00.839Z,31.95
2023-05-19T19:24:28.633Z,22.55
2023-05-19T19:26:55.587Z,27.35
2023-05-19T19:29:22.623Z,30.10
2023-05-19T19:31:49.657Z,25.08
2023-05-19T19:34:19.850Z,29.95
2023-05-19T19:36:47.989Z,25.70
2023-05-19T19:39:15.372Z,30.45
2023-05-19T19:41:42.518Z,30.00
2023-05-19T19:44:09.526Z,24.92
2023-05-19T19:46:36.520Z,24.23
2023-05-19T19:49:03.552Z,21.23
2023-05-19T19:51:31.639Z,28.65
2023-05-19T19:53:59.269Z,27.20
2023-05-19T19:56:27.776Z,26.02
2023-05-19T19:58:56.862Z,24.55
2023-05-19T20:01:28.068Z,24.65
2023-05-19T20:03:56.926Z,30.77
2023-05-19T20:06:23.962Z,24.45
2023-05-19T20:08:51.008Z,25.67
2023-05-19T20:11:17.965Z,29.33
2023-05-19T20:13:44.892Z,24.95
2023-05-19T20:16:11.964Z,31.42
2023-05-19T20:18:39.785Z,28.90
2023-05-19T20:21:06.865Z,30.88
2023-05-19T20:23:34.072Z,29.20
2023-05-19T20:26:11.855Z,26.05
2023-05-19T20:28:40.460Z,27.63
2023-05-19T20:31:07.629Z,28.65
2023-05-19T20:33:34.878Z,25.55
2023-05-19T20:36:01.939Z,29.80
2023-05-19T20:38:28.934Z,36.00
2023-05-19T20:40:55.824Z,32.13
2023-05-19T20:43:22.765Z,26.92
2023-05-19T20:45:49.736Z,25.52
2023-05-19T20:48:16.714Z,27.85
2023-05-19T20:50:43.671Z,34.55
2023-05-19T20:53:10.756Z,34.72
2023-05-19T20:55:39.252Z,28.05
2023-05-19T20:58:06.347Z,23.60
2023-05-19T21:00:33.756Z,23.15
2023-05-19T21:03:01.628Z,30.27
2023-05-19T21:05:28.656Z,35.25
2023-05-19T21:07:55.705Z,26.13
2023-05-19T21:10:22.792Z,26.92
2023-05-19T21:12:49.845Z,25.60
2023-05-19T21:15:16.923Z,31.23
2023-05-19T21:17:43.854Z,33.03
2023-05-19T21:20:11.300Z,34.65
2023-05-19T21:22:38.351Z,26.05
2023-05-19T21:25:06.243Z,34.75
2023-05-19T21:27:35.604Z,29.05
2023-05-19T21:30:02.763Z,25.80
2023-05-19T21:32:29.880Z,33.33
2023-05-19T21:34:56.964Z,24.25
2023-05-19T21:37:23.849Z,36.85
2023-05-19T21:39:50.898Z,35.42
2023-05-19T21:42:18.144Z,29.50
2023-05-19T21:44:45.002Z,31.05
2023-05-19T21:47:11.984Z,25.65
2023-05-19T21:49:40.415Z,26.05
2023-05-19T21:52:08.128Z,32.03
2023-05-19T21:54:36.312Z,29.48
2023-05-19T21:57:03.337Z,28.73
2023-05-19T21:59:31.063Z,36.42
2023-05-19T22:01:58.665Z,35.72
2023-05-19T22:04:25.974Z,29.60
2023-05-19T22:06:52.876Z,29.13
2023-05-19T22:09:19.777Z,30.80
2023-05-19T22:11:46.652Z,25.92
2023-05-19T22:14:13.922Z,34.35
2023-05-19T22:16:41.289Z,27.73
2023-05-19T22:19:08.370Z,35.45
2023-05-19T22:21:35.306Z,23.35
2023-05-19T22:24:02.713Z,36.08
2023-05-19T22:26:29.924Z,30.30
2023-05-19T22:28:57.119Z,28.30
2023-05-19T22:31:24.054Z,31.88
2023-05-19T22:33:51.106Z,30.25
2023-05-19T22:36:18.043Z,27.85
2023-05-19T22:38:45.013Z,31.92
2023-05-19T22:41:11.944Z,27.15
2023-05-19T22:43:38.982Z,26.33
2023-05-19T22:46:06.153Z,35.22
2023-05-19T22:48:33.229Z,30.88
2023-05-19T22:51:00.275Z,31.85
2023-05-19T22:53:27.184Z,33.15
2023-05-19T22:55:54.073Z,29.83
2023-05-19T22:58:20.959Z,34.53
2023-05-19T23:00:47.897Z,30.55
2023-05-19T23:03:14.835Z,36.80
2023-05-19T23:05:41.736Z,28.50
2023-05-19T23:08:08.646Z,28.75
2023-05-19T23:10:35.737Z,31.25
2023-05-19T23:13:02.621Z,24.23
2023-05-19T23:15:29.733Z,24.58
2023-05-19T23:17:56.697Z,27.48
2023-05-19T23:20:23.613Z,34.60
2023-05-19T23:22:50.569Z,31.15
2023-05-19T23:25:17.817Z,32.92
2023-05-19T23:27:46.630Z,27.25
2023-05-19T23:30:13.608Z,34.22
2023-05-19T23:32:41.190Z,35.80
2023-05-19T23:35:17.009Z,36.47
2023-05-19T23:37:44.218Z,32.38
2023-05-19T23:40:11.748Z,30.90
2023-05-19T23:42:38.822Z,35.83
2023-05-19T23:45:06.434Z,27.90
2023-05-19T23:47:33.390Z,29.10
2023-05-19T23:50:00.372Z,28.55
2023-05-19T23:52:27.424Z,30.90
2023-05-19T23:54:54.383Z,34.22
2023-05-19T23:57:21.567Z,24.38
2023-05-19T23:59:48.615Z,33.67
